createdAt,value
2024-01-18T00:01:37.586Z,0.60
2024-01-18T00:04:05.856Z,0.70
2024-01-18T00:06:34.212Z,0.70
2024-01-18T00:09:02.172Z,0.60
2024-01-18T00:11:30.126Z,0.60
2024-01-18T00:13:58.014Z,0.60
2024-01-18T00:16:25.921Z,0.70
2024-01-18T00:18:55.373Z,0.60
2024-01-18T00:21:23.678Z,0.60
2024-01-18T00:23:51.881Z,0.60
2024-01-18T00:26:19.921Z,0.60
2024-01-18T00:28:47.878Z,0.60
2024-01-18T00:31:16.049Z,0.60
2024-01-18T00:33:44.067Z,0.60
2024-01-18T00:36:13.661Z,0.70
2024-01-18T00:38:41.795Z,0.70
2024-01-18T00:41:09.700Z,0.60
2024-01-18T00:43:37.634Z,0.60
2024-01-18T00:46:06.377Z,0.60
2024-01-18T00:48:34.407Z,0.60
2024-01-18T00:51:02.804Z,0.50
2024-01-18T00:53:32.163Z,0.50
2024-01-18T00:56:00.315Z,0.50
2024-01-18T00:58:28.439Z,0.50
2024-01-18T01:00:56.417Z,0.60
2024-01-18T01:03:24.356Z,0.50
2024-01-18T01:05:52.321Z,0.50
2024-01-18T01:08:20.346Z,0.60
2024-01-18T01:10:49.659Z,0.50
2024-01-18T01:13:17.541Z,0.50
2024-01-18T01:15:45.493Z,0.50
2024-01-18T01:18:13.458Z,0.50
2024-01-18T01:20:41.406Z,0.50
2024-01-18T01:23:09.297Z,0.50
2024-01-18T01:25:37.184Z,0.50
2024-01-18T01:28:07.463Z,0.50
2024-01-18T01:30:35.718Z,0.50
2024-01-18T01:33:03.751Z,0.50
2024-01-18T01:35:31.843Z,0.50
2024-01-18T01:38:01.004Z,0.40
2024-01-18T01:40:28.893Z,0.40
2024-01-18T01:42:56.798Z,0.40
2024-01-18T01:45:26.348Z,0.30
2024-01-18T01:47:54.779Z,0.30
2024-01-18T01:50:22.806Z,0.30
2024-01-18T01:52:51.098Z,0.40
2024-01-18T01:55:19.100Z,0.30
2024-01-18T01:57:49.315Z,0.30
2024-01-18T02:00:19.175Z,0.30
2024-01-18T02:02:48.932Z,0.30
2024-01-18T02:05:17.254Z,0.30
2024-01-18T02:07:45.427Z,0.20
2024-01-18T02:10:14.512Z,0.20
2024-01-18T02:12:43.493Z,0.20
2024-01-18T02:15:12.007Z,0.20
2024-01-18T02:17:39.958Z,0.10
2024-01-18T02:20:10.233Z,0.10
2024-01-18T02:22:42.763Z,0.00
2024-01-18T02:25:20.582Z,0.00
2024-01-18T02:27:48.586Z,0.00
2024-01-18T02:30:16.677Z,0.00
2024-01-18T02:32:44.768Z,0.00
2024-01-18T02:35:13.175Z,0.00
2024-01-18T02:37:41.189Z,0.00
2024-01-18T02:40:10.001Z,0.10
2024-01-18T02:42:39.545Z,0.10
2024-01-18T02:45:08.585Z,0.00
2024-01-18T02:47:37.525Z,0.10
2024-01-18T02:50:06.108Z,0.10
2024-01-18T02:52:34.170Z,0.10
2024-01-18T02:55:02.105Z,0.10
2024-01-18T02:57:30.046Z,0.10
2024-01-18T02:59:59.388Z,0.00
2024-01-18T03:02:27.300Z,0.10
2024-01-18T03:04:55.164Z,0.10
2024-01-18T03:07:23.067Z,0.00
2024-01-18T03:09:51.023Z,-0.10
2024-01-18T03:12:18.936Z,-0.10
2024-01-18T03:14:47.139Z,0.00
2024-01-18T03:17:16.421Z,0.00
2024-01-18T03:19:44.399Z,0.00
2024-01-18T03:22:12.302Z,0.00
2024-01-18T03:24:40.293Z,-0.10
2024-01-18T03:27:08.284Z,-0.10
2024-01-18T03:29:36.250Z,-0.20
2024-01-18T03:32:04.295Z,-0.20
2024-01-18T03:34:33.693Z,-0.30
2024-01-18T03:37:01.657Z,-0.30
2024-01-18T03:39:29.584Z,-0.20
2024-01-18T03:41:57.571Z,-0.20
2024-01-18T03:44:25.495Z,-0.30
2024-01-18T03:46:53.361Z,-0.30
2024-01-18T03:49:22.200Z,-0.30
2024-01-18T03:51:51.433Z,-0.30
2024-01-18T03:54:19.398Z,-0.30
2024-01-18T03:56:47.323Z,-0.30
2024-01-18T03:59:15.728Z,-0.30
2024-01-18T04:01:44.319Z,-0.30
2024-01-18T04:04:12.425Z,-0.30
2024-01-18T04:06:40.441Z,-0.30
2024-01-18T04:09:09.905Z,-0.30
2024-01-18T04:11:37.935Z,-0.30
2024-01-18T04:14:05.848Z,-0.30
2024-01-18T04:16:34.499Z,-0.30
2024-01-18T04:19:02.558Z,-0.30
2024-01-18T04:21:30.580Z,-0.30
2024-01-18T04:23:58.789Z,-0.30
2024-01-18T04:26:28.877Z,-0.40
2024-01-18T04:28:57.279Z,-0.30
2024-01-18T04:31:25.183Z,-0.30
2024-01-18T04:33:53.252Z,-0.30
2024-01-18T04:36:21.519Z,-0.30
2024-01-18T04:38:49.632Z,-0.30
2024-01-18T04:41:17.610Z,-0.40
2024-01-18T04:43:46.926Z,-0.30
2024-01-18T04:46:14.944Z,-0.30
2024-01-18T04:48:43.878Z,-0.30
2024-01-18T04:51:11.974Z,-0.30
2024-01-18T04:53:39.278Z,-0.30
2024-01-18T04:56:07.466Z,-0.30
2024-01-18T04:58:35.956Z,-0.30
2024-01-18T05:01:05.618Z,-0.30
2024-01-18T05:03:33.609Z,-0.20
2024-01-18T05:06:02.334Z,-0.20
2024-01-18T05:08:30.478Z,-0.20
2024-01-18T05:10:58.439Z,-0.20
2024-01-18T05:13:26.464Z,-0.20
2024-01-18T05:15:54.621Z,-0.20
2024-01-18T05:18:24.004Z,-0.30
2024-01-18T05:20:52.175Z,-0.30
2024-01-18T05:23:20.117Z,-0.30
2024-01-18T05:25:48.097Z,-0.30
2024-01-18T05:28:16.042Z,-0.30
2024-01-18T05:30:44.023Z,-0.40
2024-01-18T05:33:12.114Z,-0.40
2024-01-18T05:35:41.476Z,-0.50
2024-01-18T05:38:09.632Z,-0.60
2024-01-18T05:40:37.560Z,-0.60
2024-01-18T05:43:05.790Z,-0.70
2024-01-18T05:45:33.776Z,-0.80
2024-01-18T05:48:02.626Z,-0.80
2024-01-18T05:50:30.718Z,-0.90
2024-01-18T05:52:59.964Z,-0.90
2024-01-18T05:55:27.862Z,-1.00
2024-01-18T05:57:55.768Z,-0.90
2024-01-18T06:00:25.494Z,-0.90
2024-01-18T06:02:53.442Z,-1.00
2024-01-18T06:05:21.382Z,-1.00
2024-01-18T06:07:50.763Z,-1.00
2024-01-18T06:10:20.452Z,-1.10
2024-01-18T06:12:48.472Z,-1.00
2024-01-18T06:15:16.506Z,-1.20
2024-01-18T06:17:44.511Z,-1.20
2024-01-18T06:20:16.049Z,-1.30
2024-01-18T06:22:47.022Z,-1.30
2024-01-18T06:25:14.965Z,-1.40
2024-01-18T06:27:44.277Z,-1.40
2024-01-18T06:30:13.791Z,-1.50
2024-01-18T06:32:41.753Z,-1.50
2024-01-18T06:35:10.864Z,-1.60
2024-01-18T06:37:38.815Z,-1.60
2024-01-18T06:40:08.515Z,-1.70
2024-01-18T06:42:36.441Z,-1.70
2024-01-18T06:45:06.731Z,-1.70
2024-01-18T06:47:34.727Z,-1.70
2024-01-18T06:50:02.669Z,-1.60
2024-01-18T06:52:30.691Z,-1.50
2024-01-18T06:54:58.785Z,-1.50
2024-01-18T06:57:26.727Z,-1.40
2024-01-18T06:59:56.347Z,-1.50
2024-01-18T07:02:25.780Z,-1.40
2024-01-18T07:04:53.835Z,-1.40
2024-01-18T07:07:22.603Z,-1.40
2024-01-18T07:09:50.761Z,-1.50
2024-01-18T07:12:18.722Z,-1.50
2024-01-18T07:14:47.065Z,-1.50
2024-01-18T07:17:15.130Z,-1.50
2024-01-18T07:19:44.643Z,-1.50
2024-01-18T07:22:13.534Z,-1.50
2024-01-18T07:24:41.600Z,-1.50
2024-01-18T07:27:10.916Z,-1.60
2024-01-18T07:29:39.186Z,-1.60
2024-01-18T07:32:08.853Z,-1.60
2024-01-18T07:34:37.525Z,-1.60
2024-01-18T07:37:10.734Z,-1.70
2024-01-18T07:39:38.844Z,-1.60
2024-01-18T07:42:08.619Z,-1.60
2024-01-18T07:44:36.664Z,-1.60
2024-01-18T07:47:04.861Z,-1.60
2024-01-18T07:49:32.837Z,-1.60
2024-01-18T07:52:01.410Z,-1.60
2024-01-18T07:54:30.870Z,-1.50
2024-01-18T07:56:58.855Z,-1.40
2024-01-18T07:59:27.875Z,-1.40
2024-01-18T08:01:55.814Z,-1.40
2024-01-18T08:04:24.165Z,-1.40
2024-01-18T08:06:52.254Z,-1.30
2024-01-18T08:09:20.641Z,-1.30
2024-01-18T08:11:50.598Z,-1.30
2024-01-18T08:14:18.590Z,-1.30
2024-01-18T08:16:46.484Z,-1.20
2024-01-18T08:19:14.579Z,-1.20
2024-01-18T08:21:45.515Z,-1.10
2024-01-18T08:24:13.967Z,-1.10
2024-01-18T08:26:42.870Z,-1.10
2024-01-18T08:29:12.546Z,-1.00
2024-01-18T08:31:40.820Z,-1.10
2024-01-18T08:34:10.275Z,-1.10
2024-01-18T08:36:38.656Z,-1.10
2024-01-18T08:39:08.930Z,-1.10
2024-01-18T08:41:36.950Z,-1.00
2024-01-18T08:44:06.276Z,-1.00
2024-01-18T08:46:35.570Z,-1.00
2024-01-18T08:49:03.586Z,-1.00
2024-01-18T08:51:32.077Z,-1.00
2024-01-18T08:54:00.039Z,-1.00
2024-01-18T08:56:31.176Z,-0.90
2024-01-18T08:59:00.162Z,-0.80
2024-01-18T09:01:28.645Z,-0.80
2024-01-18T09:03:58.224Z,-0.80
2024-01-18T09:06:27.992Z,-0.90
2024-01-18T09:08:56.058Z,-0.80
2024-01-18T09:11:24.042Z,-0.70
2024-01-18T09:13:52.054Z,-0.80
2024-01-18T09:16:19.982Z,-0.80
2024-01-18T09:19:00.536Z,-0.80
2024-01-18T09:21:41.598Z,-0.80
2024-01-18T09:24:09.757Z,-0.80
2024-01-18T09:26:37.768Z,-0.80
2024-01-18T09:29:05.765Z,-0.80
2024-01-18T09:31:41.300Z,-0.80
2024-01-18T09:34:13.105Z,-0.80
2024-01-18T09:36:42.582Z,-0.80
2024-01-18T09:39:17.479Z,-0.70
2024-01-18T09:41:50.301Z,-0.70
2024-01-18T09:44:25.045Z,-0.70
2024-01-18T09:46:54.599Z,-0.60
2024-01-18T09:49:22.984Z,-0.60
2024-01-18T09:51:52.973Z,-0.50
2024-01-18T09:54:21.143Z,-0.40
2024-01-18T09:56:53.762Z,-0.40
2024-01-18T09:59:24.069Z,-0.40
2024-01-18T10:01:52.443Z,-0.20
2024-01-18T10:04:21.551Z,-0.20
2024-01-18T10:06:50.643Z,-0.20
2024-01-18T10:09:20.203Z,-0.20
2024-01-18T10:11:48.440Z,-0.20
2024-01-18T10:14:17.240Z,-0.20
2024-01-18T10:16:45.389Z,-0.10
2024-01-18T10:19:16.050Z,-0.10
2024-01-18T10:21:45.546Z,-0.10
2024-01-18T10:24:14.929Z,0.00
2024-01-18T10:26:44.522Z,0.10
2024-01-18T10:29:12.993Z,0.20
2024-01-18T10:31:43.401Z,0.20
2024-01-18T10:34:12.174Z,0.10
2024-01-18T10:36:41.301Z,0.10
2024-01-18T10:39:19.835Z,0.20
2024-01-18T10:41:49.763Z,0.20
2024-01-18T10:44:18.065Z,0.30
2024-01-18T10:46:48.016Z,0.50
2024-01-18T10:49:17.230Z,0.60
2024-01-18T10:51:45.629Z,0.70
2024-01-18T10:54:25.383Z,0.70
2024-01-18T10:57:01.035Z,0.70
2024-01-18T10:59:30.505Z,0.60
2024-01-18T11:02:00.418Z,0.70
2024-01-18T11:04:37.882Z,0.70
2024-01-18T11:07:07.616Z,0.80
2024-01-18T11:09:38.018Z,0.90
2024-01-18T11:12:09.370Z,1.00
2024-01-18T11:14:37.856Z,1.10
2024-01-18T11:17:13.155Z,1.10
2024-01-18T11:19:42.618Z,1.00
2024-01-18T11:22:12.484Z,1.00
2024-01-18T11:24:42.025Z,1.00
2024-01-18T11:27:23.702Z,1.10
2024-01-18T11:29:52.341Z,1.10
2024-01-18T11:32:21.665Z,1.20
2024-01-18T11:34:51.130Z,1.40
2024-01-18T11:37:21.443Z,1.50
2024-01-18T11:39:55.713Z,1.50
2024-01-18T11:42:26.649Z,1.50
2024-01-18T11:44:58.905Z,1.50
2024-01-18T11:47:30.370Z,1.50
2024-01-18T11:49:58.969Z,1.50
2024-01-18T11:52:29.298Z,1.50
2024-01-18T11:55:00.459Z,1.50
2024-01-18T11:57:30.208Z,1.50
2024-01-18T11:59:58.381Z,1.60
2024-01-18T12:02:27.286Z,1.70
2024-01-18T12:04:55.279Z,1.60
2024-01-18T12:07:24.383Z,1.60
2024-01-18T12:09:53.059Z,1.60
2024-01-18T12:12:22.288Z,1.60
2024-01-18T12:14:51.696Z,1.60
2024-01-18T12:17:19.959Z,1.60
2024-01-18T12:19:49.240Z,1.50
2024-01-18T12:22:19.442Z,1.60
2024-01-18T12:24:49.501Z,1.60
2024-01-18T12:27:18.663Z,1.60
2024-01-18T12:29:47.643Z,1.50
2024-01-18T12:32:19.852Z,1.40
2024-01-18T12:34:47.966Z,1.50
2024-01-18T12:37:16.393Z,1.50
2024-01-18T12:39:44.465Z,1.50
2024-01-18T12:42:12.409Z,1.50
2024-01-18T12:44:40.290Z,1.50
2024-01-18T12:47:08.342Z,1.50
2024-01-18T12:49:37.738Z,1.60
2024-01-18T12:52:06.299Z,1.60
2024-01-18T12:54:34.449Z,1.70
2024-01-18T12:57:05.753Z,1.70
2024-01-18T12:59:34.338Z,1.80
2024-01-18T13:02:02.355Z,1.90
2024-01-18T13:04:32.843Z,1.90
2024-01-18T13:07:04.669Z,2.20
2024-01-18T13:09:35.338Z,2.70
2024-01-18T13:12:05.990Z,3.70
2024-01-18T13:14:37.417Z,3.80
2024-01-18T13:17:06.047Z,3.50
2024-01-18T13:19:34.738Z,3.10
2024-01-18T13:22:05.322Z,2.80
2024-01-18T13:24:33.510Z,2.50
2024-01-18T13:27:05.713Z,2.20
2024-01-18T13:29:34.388Z,2.00
2024-01-18T13:32:02.490Z,1.90
2024-01-18T13:34:31.452Z,2.00
2024-01-18T13:36:59.646Z,1.90
2024-01-18T13:39:29.022Z,1.90
2024-01-18T13:41:56.961Z,1.80
2024-01-18T13:44:24.899Z,2.00
2024-01-18T13:46:53.751Z,2.20
2024-01-18T13:49:22.590Z,2.60
2024-01-18T13:51:52.450Z,3.00
2024-01-18T13:54:20.454Z,2.90
2024-01-18T13:56:49.761Z,2.80
2024-01-18T13:59:17.655Z,2.50
2024-01-18T14:01:45.766Z,2.30
2024-01-18T14:04:14.156Z,2.20
2024-01-18T14:06:42.470Z,1.90
2024-01-18T14:09:10.562Z,1.80
2024-01-18T14:11:38.550Z,1.70
2024-01-18T14:14:07.754Z,1.60
2024-01-18T14:16:37.549Z,1.50
2024-01-18T14:19:05.664Z,1.50
2024-01-18T14:21:33.630Z,1.50
2024-01-18T14:24:01.571Z,1.50
2024-01-18T14:26:29.717Z,1.50
2024-01-18T14:28:57.574Z,1.50
2024-01-18T14:31:26.826Z,1.50
2024-01-18T14:33:54.854Z,1.40
2024-01-18T14:36:22.820Z,1.30
2024-01-18T14:38:50.785Z,1.30
2024-01-18T14:41:18.672Z,1.20
2024-01-18T14:43:46.597Z,1.20
2024-01-18T14:46:14.732Z,1.10
2024-01-18T14:48:45.758Z,1.20
2024-01-18T14:51:13.739Z,1.10
2024-01-18T14:53:41.933Z,1.20
2024-01-18T14:56:09.995Z,1.10
2024-01-18T14:58:37.870Z,1.10
2024-01-18T15:01:06.176Z,1.10
2024-01-18T15:03:34.910Z,1.00
2024-01-18T15:06:04.939Z,1.00
2024-01-18T15:08:32.826Z,1.00
2024-01-18T15:11:00.912Z,1.00
2024-01-18T15:13:28.813Z,0.90
2024-01-18T15:15:56.937Z,0.90
2024-01-18T15:18:29.221Z,0.90
2024-01-18T15:20:57.228Z,0.90
2024-01-18T15:23:26.585Z,0.80
2024-01-18T15:25:55.512Z,0.70
2024-01-18T15:28:24.657Z,0.60
2024-01-18T15:30:53.418Z,0.60
2024-01-18T15:33:21.567Z,0.60
2024-01-18T15:35:49.629Z,0.50
2024-01-18T15:38:17.577Z,0.50
2024-01-18T15:40:48.632Z,0.50
2024-01-18T15:43:16.833Z,0.40
2024-01-18T15:45:45.038Z,0.40
2024-01-18T15:48:20.189Z,0.40
2024-01-18T15:50:49.621Z,0.40
2024-01-18T15:53:17.606Z,0.40
2024-01-18T15:55:46.905Z,0.40
2024-01-18T15:58:17.627Z,0.30
2024-01-18T16:00:45.689Z,0.20
2024-01-18T16:03:16.003Z,0.20
2024-01-18T16:05:46.964Z,0.10
2024-01-18T16:08:15.542Z,0.10
2024-01-18T16:10:45.373Z,0.10
2024-01-18T16:13:14.801Z,0.00
2024-01-18T16:15:48.593Z,0.10
2024-01-18T16:18:16.832Z,0.10
2024-01-18T16:20:46.154Z,0.10
2024-01-18T16:23:14.608Z,0.10
2024-01-18T16:25:42.644Z,0.10
2024-01-18T16:28:10.599Z,0.10
2024-01-18T16:30:40.137Z,0.10
2024-01-18T16:33:11.303Z,0.20
2024-01-18T16:35:39.208Z,0.20
2024-01-18T16:38:07.362Z,0.20
2024-01-18T16:40:40.570Z,0.10
2024-01-18T16:43:08.617Z,0.10
2024-01-18T16:45:36.815Z,0.00
2024-01-18T16:48:09.361Z,0.00
2024-01-18T16:50:37.453Z,0.00
2024-01-18T16:53:05.677Z,0.00
2024-01-18T16:55:35.462Z,0.00
2024-01-18T16:58:03.504Z,0.00
2024-01-18T17:00:31.560Z,0.10
2024-01-18T17:02:59.476Z,0.00
2024-01-18T17:05:30.835Z,0.00
2024-01-18T17:07:58.798Z,0.00
2024-01-18T17:10:28.958Z,0.00
2024-01-18T17:12:56.963Z,0.00
2024-01-18T17:15:24.879Z,-0.10
2024-01-18T17:17:52.888Z,-0.10
2024-01-18T17:20:23.375Z,-0.10
2024-01-18T17:22:52.675Z,-0.20
2024-01-18T17:25:20.939Z,-0.20
2024-01-18T17:27:48.931Z,-0.20
2024-01-18T17:30:21.070Z,-0.20
2024-01-18T17:32:49.542Z,-0.30
2024-01-18T17:35:18.176Z,-0.30
2024-01-18T17:37:51.170Z,-0.40
2024-01-18T17:40:24.069Z,-0.40
2024-01-18T17:42:52.612Z,-0.50
2024-01-18T17:45:20.654Z,-0.60
2024-01-18T17:47:53.106Z,-0.60
2024-01-18T17:50:23.387Z,-0.70
2024-01-18T17:52:51.746Z,-0.70
2024-01-18T17:55:21.193Z,-0.80
2024-01-18T17:57:49.163Z,-0.80
2024-01-18T18:00:27.110Z,-0.90
2024-01-18T18:03:01.154Z,-0.90
2024-01-18T18:05:29.201Z,-1.00
